Time;durP1;ratioP1;P1;durP2;ratioP2;P2;SDS_P1;SDS_P2;PMS_P1;PMS_P2;Temp;Humidity;BMP_temperature;BMP_pressure;BME280_temperature;BME280_humidity;BME280_pressure;Samples;Min_cycle;Max_cycle;Signal;HPM_P1;HPM_P2
2024/04/03 00:00:55;;;;;;;1.58;1.10;;;;;;;;;;5019537;28;20390;-49
2024/04/03 00:03:22;;;;;;;10.35;1.40;;;;;;;;;;5031406;28;20060;-48
2024/04/03 00:05:48;;;;;;;4.57;1.65;;;;;;;;;;5031147;28;20033;-49
2024/04/03 00:08:14;;;;;;;2.20;1.40;;;;;;;;;;5042852;28;20472;-48
2024/04/03 00:10:40;;;;;;;5.15;1.83;;;;;;;;;;5031216;28;20065;-48
2024/04/03 00:13:07;;;;;;;3.50;1.43;;;;;;;;;;5031243;28;20033;-49
2024/04/03 00:15:33;;;;;;;2.75;1.30;;;;;;;;;;5013291;28;20030;-49
2024/04/03 00:17:59;;;;;;;3.25;1.20;;;;;;;;;;5030982;28;20028;-48
2024/04/03 00:20:26;;;;;;;4.63;1.03;;;;;;;;;;5031162;28;20492;-49
2024/04/03 00:22:52;;;;;;;2.83;1.40;;;;;;;;;;5013606;28;20279;-48
2024/04/03 00:25:18;;;;;;;5.78;1.50;;;;;;;;;;5031038;28;20124;-49
2024/04/03 00:27:45;;;;;;;1.77;0.95;;;;;;;;;;5013294;28;20450;-49
2024/04/03 00:30:11;;;;;;;4.20;1.40;;;;;;;;;;5030891;28;20030;-48
2024/04/03 00:32:37;;;;;;;2.85;0.98;;;;;;;;;;5031025;28;20036;-48
2024/04/03 00:35:04;;;;;;;9.13;2.00;;;;;;;;;;5030983;28;20024;-49
2024/04/03 00:37:30;;;;;;;3.17;1.40;;;;;;;;;;5031177;28;20036;-51
2024/04/03 00:39:57;;;;;;;4.15;1.20;;;;;;;;;;5030060;28;20613;-48
2024/04/03 00:42:24;;;;;;;3.30;1.48;;;;;;;;;;5029332;28;20033;-49
2024/04/03 00:44:50;;;;;;;2.85;1.20;;;;;;;;;;5028873;28;20030;-48
2024/04/03 00:47:17;;;;;;;2.30;1.05;;;;;;;;;;5021918;28;20026;-48
2024/04/03 00:49:44;;;;;;;3.80;1.00;;;;;;;;;;4993891;28;20029;-50
2024/04/03 00:52:14;;;;;;;3.47;1.83;;;;;;;;;;4996479;28;20148;-48
2024/04/03 00:54:41;;;;;;;2.08;0.75;;;;;;;;;;5030727;28;20033;-48
2024/04/03 00:57:07;;;;;;;2.15;1.20;;;;;;;;;;5026116;28;20060;-49
2024/04/03 00:59:34;;;;;;;3.65;0.88;;;;;;;;;;5015998;28;20030;-49
2024/04/03 01:02:01;;;;;;;1.83;1.23;;;;;;;;;;5025581;28;20037;-50
2024/04/03 01:04:27;;;;;;;2.70;1.02;;;;;;;;;;5013291;28;20060;-48
2024/04/03 01:06:53;;;;;;;1.37;1.00;;;;;;;;;;5019654;28;20022;-49
2024/04/03 01:09:19;;;;;;;4.37;1.33;;;;;;;;;;5001389;28;20101;-49
2024/04/03 01:11:50;;;;;;;1.40;0.70;;;;;;;;;;5012836;28;20037;-51
2024/04/03 01:14:16;;;;;;;1.85;0.70;;;;;;;;;;4999427;28;20061;-49
2024/04/03 01:16:43;;;;;;;3.30;1.17;;;;;;;;;;5024288;28;20120;-48
2024/04/03 01:19:10;;;;;;;3.58;1.10;;;;;;;;;;5027754;28;20037;-48
2024/04/03 01:21:39;;;;;;;6.97;1.15;;;;;;;;;;5030688;28;20026;-52
2024/04/03 01:24:05;;;;;;;5.18;1.10;;;;;;;;;;5010729;28;20068;-50
2024/04/03 01:26:31;;;;;;;8.73;1.47;;;;;;;;;;5000186;28;20415;-49
2024/04/03 01:28:58;;;;;;;2.43;1.20;;;;;;;;;;5033577;28;20516;-48
2024/04/03 01:31:24;;;;;;;4.25;1.10;;;;;;;;;;5019342;28;20033;-49
2024/04/03 01:33:50;;;;;;;8.27;1.65;;;;;;;;;;5016825;28;20112;-47
2024/04/03 01:36:16;;;;;;;3.05;1.13;;;;;;;;;;5014440;28;20034;-47
2024/04/03 01:38:43;;;;;;;3.13;1.30;;;;;;;;;;4998011;28;20500;-47
2024/04/03 01:41:09;;;;;;;5.75;1.27;;;;;;;;;;5020883;28;20039;-49
2024/04/03 01:43:35;;;;;;;3.60;1.20;;;;;;;;;;5016086;28;20033;-48
2024/04/03 01:46:03;;;;;;;4.13;1.17;;;;;;;;;;5025810;28;20030;-49
2024/04/03 01:48:29;;;;;;;5.25;1.48;;;;;;;;;;5016499;28;20492;-49
2024/04/03 01:50:55;;;;;;;4.50;1.67;;;;;;;;;;4996470;28;20522;-49
2024/04/03 01:53:21;;;;;;;3.22;1.10;;;;;;;;;;4997789;28;20076;-49
2024/04/03 01:55:54;;;;;;;5.10;1.13;;;;;;;;;;4996466;28;20118;-49
2024/04/03 01:58:21;;;;;;;3.70;2.08;;;;;;;;;;5033642;28;20068;-48
2024/04/03 02:00:48;;;;;;;3.58;1.23;;;;;;;;;;5009645;28;20034;-48
2024/04/03 02:03:14;;;;;;;2.80;1.10;;;;;;;;;;5026500;28;20029;-48
2024/04/03 02:05:42;;;;;;;4.20;1.23;;;;;;;;;;5001241;28;20026;-48
2024/04/03 02:08:09;;;;;;;4.32;1.45;;;;;;;;;;5033286;28;20049;-48
2024/04/03 02:10:35;;;;;;;8.20;2.08;;;;;;;;;;5033328;28;20461;-48
2024/04/03 02:13:01;;;;;;;3.90;1.45;;;;;;;;;;5033523;28;20040;-48
2024/04/03 02:15:27;;;;;;;3.17;1.10;;;;;;;;;;5033280;28;20112;-48
2024/04/03 02:17:53;;;;;;;4.07;1.15;;;;;;;;;;5033555;28;20502;-48
2024/04/03 02:20:19;;;;;;;4.90;1.15;;;;;;;;;;5032473;28;20391;-49
2024/04/03 02:22:46;;;;;;;4.35;2.08;;;;;;;;;;5014655;28;20036;-48
2024/04/03 02:25:12;;;;;;;2.03;1.00;;;;;;;;;;5032588;28;20055;-48
2024/04/03 02:27:39;;;;;;;2.60;2.15;;;;;;;;;;5033252;28;20056;-47
2024/04/03 02:30:05;;;;;;;3.07;1.10;;;;;;;;;;5032574;28;20439;-52
2024/04/03 02:32:31;;;;;;;2.60;1.30;;;;;;;;;;5015160;28;20061;-48
2024/04/03 02:34:57;;;;;;;3.47;1.10;;;;;;;;;;5032664;28;20285;-49
2024/04/03 02:37:23;;;;;;;3.17;0.95;;;;;;;;;;5032299;28;20400;-47
2024/04/03 02:39:50;;;;;;;1.90;0.82;;;;;;;;;;5032634;28;20488;-49
2024/04/03 02:42:16;;;;;;;5.35;1.00;;;;;;;;;;5014806;28;20041;-48
2024/04/03 02:44:42;;;;;;;4.72;1.08;;;;;;;;;;5014973;28;20021;-48
2024/04/03 02:47:09;;;;;;;1.88;1.30;;;;;;;;;;5032429;28;20021;-48
2024/04/03 02:49:35;;;;;;;11.77;1.48;;;;;;;;;;5032241;28;20064;-49
2024/04/03 02:52:01;;;;;;;3.35;1.08;;;;;;;;;;5014664;28;20136;-48
2024/04/03 02:54:27;;;;;;;1.58;1.00;;;;;;;;;;5032522;28;20057;-48
2024/04/03 02:56:54;;;;;;;3.83;1.25;;;;;;;;;;5032553;28;20056;-48
2024/04/03 02:59:20;;;;;;;2.50;1.33;;;;;;;;;;4998496;28;20547;-48
2024/04/03 03:01:46;;;;;;;2.90;1.45;;;;;;;;;;5031786;28;20069;-48
2024/04/03 03:04:12;;;;;;;8.95;2.08;;;;;;;;;;5014500;28;20111;-48
2024/04/03 03:06:38;;;;;;;4.85;1.70;;;;;;;;;;5032410;28;20460;-50
2024/04/03 03:09:04;;;;;;;7.28;1.77;;;;;;;;;;5032661;28;20030;-49
2024/04/03 03:11:31;;;;;;;3.30;1.52;;;;;;;;;;5032054;28;20107;-48
2024/04/03 03:13:57;;;;;;;8.37;2.07;;;;;;;;;;5031932;28;20033;-51
2024/04/03 03:16:23;;;;;;;2.85;1.42;;;;;;;;;;5031780;28;20322;-49
2024/04/03 03:18:50;;;;;;;3.33;1.67;;;;;;;;;;5032236;28;20028;-52
2024/04/03 03:21:16;;;;;;;5.25;1.58;;;;;;;;;;5032143;28;20405;-49
2024/04/03 03:23:42;;;;;;;8.60;2.50;;;;;;;;;;5032314;28;20079;-49
2024/04/03 03:26:08;;;;;;;2.35;1.70;;;;;;;;;;5014307;28;20561;-50
2024/04/03 03:28:34;;;;;;;3.72;1.65;;;;;;;;;;5014207;28;20488;-47
2024/04/03 03:31:01;;;;;;;4.47;1.60;;;;;;;;;;5031642;28;20068;-47
2024/04/03 03:33:27;;;;;;;6.90;1.80;;;;;;;;;;5031822;28;20283;-49
2024/04/03 03:35:55;;;;;;;2.15;1.33;;;;;;;;;;5032025;28;20059;-48
2024/04/03 03:38:21;;;;;;;3.47;1.48;;;;;;;;;;5031845;28;20033;-48
2024/04/03 03:40:47;;;;;;;2.93;1.50;;;;;;;;;;5031219;28;20564;-48
2024/04/03 03:43:14;;;;;;;3.33;1.80;;;;;;;;;;5031881;28;20555;-48
2024/04/03 03:45:44;;;;;;;4.47;1.70;;;;;;;;;;5031389;28;20313;-48
2024/04/03 03:48:10;;;;;;;6.55;1.80;;;;;;;;;;5017359;28;20021;-48
2024/04/03 03:53:22;;;;;;;3.50;1.67;;;;;;;;;;5031667;28;20446;-48
2024/04/03 03:55:48;;;;;;;4.93;1.80;;;;;;;;;;5013887;28;20033;-48
2024/04/03 03:58:15;;;;;;;7.77;2.57;;;;;;;;;;5031039;28;20060;-50
2024/04/03 04:00:41;;;;;;;11.68;2.38;;;;;;;;;;5031500;28;20449;-49
2024/04/03 04:03:07;;;;;;;6.15;2.10;;;;;;;;;;5031545;28;20026;-50
2024/04/03 04:05:35;;;;;;;2.35;1.63;;;;;;;;;;5031593;28;20068;-49
2024/04/03 04:08:02;;;;;;;6.30;1.73;;;;;;;;;;5031463;28;20037;-52
2024/04/03 04:10:28;;;;;;;4.55;1.73;;;;;;;;;;5031479;28;20410;-51
2024/04/03 04:12:54;;;;;;;5.97;2.03;;;;;;;;;;5031664;28;20025;-49
2024/04/03 04:15:21;;;;;;;6.55;1.85;;;;;;;;;;5031517;28;20076;-49
2024/04/03 04:17:48;;;;;;;3.58;2.67;;;;;;;;;;5013984;28;20073;-48
2024/04/03 04:20:14;;;;;;;3.90;2.15;;;;;;;;;;5031370;28;20377;-51
2024/04/03 04:22:40;;;;;;;7.22;1.60;;;;;;;;;;5031678;28;20036;-49
2024/04/03 04:25:06;;;;;;;3.40;2.22;;;;;;;;;;5076690;22;20013;-50
2024/04/03 04:27:33;;;;;;;3.88;1.55;;;;;;;;;;5069989;28;20048;-49
2024/04/03 04:29:59;;;;;;;4.72;1.70;;;;;;;;;;5071204;28;20028;-48
2024/04/03 04:32:25;;;;;;;4.20;1.90;;;;;;;;;;5070178;28;20032;-48
2024/04/03 04:34:53;;;;;;;6.18;2.00;;;;;;;;;;5071407;28;20051;-48
2024/04/03 04:37:20;;;;;;;5.38;2.17;;;;;;;;;;5071414;28;20040;-48
2024/04/03 04:39:46;;;;;;;3.22;1.90;;;;;;;;;;5071364;28;20541;-48
2024/04/03 04:42:12;;;;;;;5.68;2.30;;;;;;;;;;5071198;28;20037;-48
2024/04/03 04:44:38;;;;;;;7.45;2.20;;;;;;;;;;5071328;28;20029;-48
2024/04/03 04:47:04;;;;;;;3.75;2.20;;;;;;;;;;5071283;28;20029;-48
2024/04/03 04:49:30;;;;;;;5.00;1.92;;;;;;;;;;5070053;28;20021;-51
2024/04/03 04:51:57;;;;;;;3.47;1.75;;;;;;;;;;5071077;28;20486;-50
2024/04/03 04:54:23;;;;;;;3.95;2.90;;;;;;;;;;5071250;28;20036;-49
2024/04/03 04:56:49;;;;;;;7.93;3.70;;;;;;;;;;5069881;28;20037;-48
2024/04/03 04:59:15;;;;;;;3.85;2.28;;;;;;;;;;5070891;28;20020;-48
2024/04/03 05:01:42;;;;;;;4.65;2.35;;;;;;;;;;5074708;28;20074;-48
2024/04/03 05:04:11;;;;;;;5.28;2.70;;;;;;;;;;5073554;28;20028;-48
2024/04/03 05:06:37;;;;;;;11.23;5.97;;;;;;;;;;5074622;28;20039;-48
2024/04/03 05:09:05;;;;;;;10.90;4.40;;;;;;;;;;5075051;28;20119;-51
2024/04/03 05:11:31;;;;;;;2.83;2.13;;;;;;;;;;5073501;28;20036;-51
2024/04/03 05:13:57;;;;;;;6.35;2.10;;;;;;;;;;5074738;28;20032;-48
2024/04/03 05:16:24;;;;;;;3.65;1.80;;;;;;;;;;5074639;28;20035;-50
2024/04/03 05:18:50;;;;;;;6.35;1.70;;;;;;;;;;5074648;28;20095;-50
2024/04/03 05:21:18;;;;;;;5.10;2.50;;;;;;;;;;5074436;28;20028;-49
2024/04/03 05:23:44;;;;;;;;;;;;;;;;;;5074951;28;20043;-47
2024/04/03 05:26:11;;;;;;;7.30;2.63;;;;;;;;;;5074357;28;19919;-49
2024/04/03 05:28:38;;;;;;;8.75;2.88;;;;;;;;;;5074479;28;20027;-52
2024/04/03 05:31:11;;;;;;;4.78;2.40;;;;;;;;;;5074312;28;20028;-50
2024/04/03 05:33:38;;;;;;;18.85;3.00;;;;;;;;;;5074393;28;20064;-52
2024/04/03 05:36:05;;;;;;;4.65;2.03;;;;;;;;;;5074317;28;20031;-50
2024/04/03 05:38:31;;;;;;;;;;;;;;;;;;5074741;28;20380;-49
2024/04/03 05:40:58;;;;;;;7.88;2.13;;;;;;;;;;5073825;28;19923;-47
2024/04/03 05:43:24;;;;;;;6.65;2.28;;;;;;;;;;5074137;28;20032;-50
2024/04/03 05:45:55;;;;;;;7.35;3.28;;;;;;;;;;5072890;28;20391;-48
2024/04/03 05:48:21;;;;;;;10.32;6.72;;;;;;;;;;5074005;28;20387;-49
2024/04/03 05:50:48;;;;;;;11.18;5.07;;;;;;;;;;5073781;28;20078;-51
2024/04/03 05:53:14;;;;;;;7.38;3.72;;;;;;;;;;5074040;28;20036;-51
2024/04/03 05:55:40;;;;;;;7.05;3.05;;;;;;;;;;5072536;28;20099;-49
2024/04/03 05:58:06;;;;;;;5.65;2.20;;;;;;;;;;5074029;28;20036;-48
2024/04/03 06:00:32;;;;;;;9.02;5.03;;;;;;;;;;5073592;28;20037;-48
2024/04/03 06:02:59;;;;;;;28.92;15.10;;;;;;;;;;5072000;28;20033;-47
2024/04/03 06:05:25;;;;;;;6.95;3.00;;;;;;;;;;5072501;28;20032;-47
2024/04/03 06:07:53;;;;;;;8.35;3.88;;;;;;;;;;5073597;28;20025;-47
2024/04/03 06:10:19;;;;;;;6.40;3.92;;;;;;;;;;5072985;28;20016;-47
2024/04/03 06:12:45;;;;;;;6.65;4.47;;;;;;;;;;5073703;28;20444;-47
2024/04/03 06:15:12;;;;;;;9.52;4.57;;;;;;;;;;5072272;28;20112;-47
2024/04/03 06:17:38;;;;;;;5.85;2.60;;;;;;;;;;5073645;28;20031;-47
2024/04/03 06:20:04;;;;;;;12.40;7.60;;;;;;;;;;5071986;28;20020;-46
2024/04/03 06:22:30;;;;;;;10.87;3.90;;;;;;;;;;5073340;28;20032;-47
2024/04/03 06:24:56;;;;;;;10.15;6.28;;;;;;;;;;5071843;28;20029;-50
2024/04/03 06:27:22;;;;;;;7.32;2.85;;;;;;;;;;5073333;28;20033;-48
2024/04/03 06:29:49;;;;;;;9.50;3.78;;;;;;;;;;5073087;28;20034;-48
2024/04/03 06:32:15;;;;;;;8.32;5.25;;;;;;;;;;5073203;28;20037;-49
2024/04/03 06:34:41;;;;;;;6.55;4.38;;;;;;;;;;5073037;28;20025;-47
2024/04/03 06:37:09;;;;;;;7.17;3.07;;;;;;;;;;5072918;28;20032;-48
2024/04/03 06:39:35;;;;;;;8.43;3.60;;;;;;;;;;5072787;28;20619;-48
2024/04/03 06:42:01;;;;;;;6.60;3.30;;;;;;;;;;5071534;28;20037;-48
2024/04/03 06:44:27;;;;;;;8.25;3.45;;;;;;;;;;5071546;28;20028;-48
2024/04/03 06:47:00;;;;;;;13.40;7.15;;;;;;;;;;5072835;28;20082;-48
2024/04/03 06:49:27;;;;;;;12.10;5.57;;;;;;;;;;5072844;28;20040;-47
2024/04/03 06:51:53;;;;;;;13.38;5.07;;;;;;;;;;5071369;28;20025;-48
2024/04/03 06:54:20;;;;;;;16.03;6.53;;;;;;;;;;5072769;28;20046;-48
2024/04/03 06:56:48;;;;;;;7.30;4.53;;;;;;;;;;5072644;28;20021;-48
2024/04/03 06:59:15;;;;;;;8.73;4.82;;;;;;;;;;5072689;28;20401;-48
2024/04/03 07:01:41;;;;;;;12.98;4.78;;;;;;;;;;5072349;28;20028;-48
2024/04/03 07:04:07;;;;;;;8.57;5.40;;;;;;;;;;5072643;28;20091;-51
2024/04/03 07:06:33;;;;;;;19.60;11.38;;;;;;;;;;5072555;28;20032;-48
2024/04/03 07:09:00;;;;;;;9.45;7.03;;;;;;;;;;5072469;28;20024;-49
2024/04/03 07:11:29;;;;;;;14.98;12.15;;;;;;;;;;5087941;28;20187;-48
2024/04/03 07:13:55;;;;;;;15.70;14.20;;;;;;;;;;5071122;28;20036;-48
2024/04/03 07:16:23;;;;;;;12.40;6.30;;;;;;;;;;5070966;28;20379;-48
2024/04/03 07:18:49;;;;;;;29.10;26.05;;;;;;;;;;5072266;28;20112;-48
2024/04/03 07:21:15;;;;;;;10.95;5.07;;;;;;;;;;5071787;28;20028;-50
2024/04/03 07:23:42;;;;;;;8.85;3.83;;;;;;;;;;5071768;28;20037;-49
2024/04/03 07:26:08;;;;;;;11.07;4.35;;;;;;;;;;5071906;28;20064;-48
2024/04/03 07:28:34;;;;;;;14.13;5.50;;;;;;;;;;5072335;28;20048;-49
2024/04/03 07:31:01;;;;;;;8.38;4.72;;;;;;;;;;5071772;28;20444;-48
2024/04/03 07:33:27;;;;;;;11.23;4.95;;;;;;;;;;5072073;28;20117;-48
2024/04/03 07:35:53;;;;;;;5.55;3.47;;;;;;;;;;5071995;28;20033;-48
2024/04/03 07:38:20;;;;;;;11.60;3.95;;;;;;;;;;5072078;28;20035;-48
2024/04/03 07:40:56;;;;;;;6.95;3.42;;;;;;;;;;5071719;28;20122;-48
2024/04/03 07:43:22;;;;;;;13.95;3.83;;;;;;;;;;5071914;28;20101;-51
2024/04/03 07:45:48;;;;;;;13.32;5.07;;;;;;;;;;5063013;28;20017;-48
2024/04/03 07:48:14;;;;;;;10.60;4.07;;;;;;;;;;5051919;28;20063;-48
2024/04/03 07:50:41;;;;;;;12.50;3.77;;;;;;;;;;5051316;28;20391;-48
2024/04/03 07:53:07;;;;;;;7.43;3.40;;;;;;;;;;5051793;28;20025;-48
2024/04/03 07:55:37;;;;;;;6.18;3.30;;;;;;;;;;5051701;28;20269;-48
2024/04/03 07:58:03;;;;;;;11.43;4.68;;;;;;;;;;5051684;28;20441;-48
2024/04/03 08:00:29;;;;;;;7.27;4.43;;;;;;;;;;5051555;28;20029;-48
2024/04/03 08:02:55;;;;;;;10.60;4.17;;;;;;;;;;5051925;28;20048;-48
2024/04/03 08:05:22;;;;;;;6.40;3.42;;;;;;;;;;5083954;28;20021;-48
2024/04/03 08:07:48;;;;;;;7.32;3.92;;;;;;;;;;5051658;28;20021;-49
2024/04/03 08:10:15;;;;;;;6.38;3.25;;;;;;;;;;5051527;28;20056;-48
2024/04/03 08:12:42;;;;;;;6.90;3.53;;;;;;;;;;5051618;28;20041;-48
2024/04/03 08:15:11;;;;;;;13.80;4.53;;;;;;;;;;5083812;28;20021;-48
2024/04/03 08:17:38;;;;;;;8.10;3.15;;;;;;;;;;5051585;28;20029;-48
2024/04/03 08:20:05;;;;;;;7.32;3.03;;;;;;;;;;5051454;28;20029;-48
2024/04/03 08:22:31;;;;;;;;;;;;;;;;;;5051857;28;20040;-48
2024/04/03 08:24:57;;;;;;;16.45;4.57;;;;;;;;;;5051276;28;19905;-48
2024/04/03 08:27:24;;;;;;;12.40;3.57;;;;;;;;;;5051464;28;20033;-48
2024/04/03 08:29:53;;;;;;;8.05;3.42;;;;;;;;;;5051389;28;20385;-48
2024/04/03 08:32:19;;;;;;;5.85;3.42;;;;;;;;;;5051383;28;20032;-48
2024/04/03 08:34:46;;;;;;;12.30;3.95;;;;;;;;;;5054845;28;20395;-48
2024/04/03 08:37:12;;;;;;;7.72;4.28;;;;;;;;;;5055500;28;20035;-48
2024/04/03 08:39:39;;;;;;;9.45;4.95;;;;;;;;;;5055172;28;20472;-48
2024/04/03 08:42:06;;;;;;;9.63;4.93;;;;;;;;;;5055359;28;20033;-48
2024/04/03 08:44:32;;;;;;;9.60;4.68;;;;;;;;;;5055141;28;20100;-48
2024/04/03 08:46:59;;;;;;;4.88;3.10;;;;;;;;;;5055217;28;20492;-48
2024/04/03 08:49:30;;;;;;;8.80;3.25;;;;;;;;;;5055099;28;20071;-48
2024/04/03 08:51:56;;;;;;;6.97;4.93;;;;;;;;;;5053660;28;20078;-48
2024/04/03 08:54:24;;;;;;;15.55;5.72;;;;;;;;;;5070314;28;20098;-48
2024/04/03 08:56:51;;;;;;;5.75;4.68;;;;;;;;;;5054843;28;20025;-48
2024/04/03 08:59:18;;;;;;;9.53;4.77;;;;;;;;;;5055018;28;20396;-48
2024/04/03 09:01:44;;;;;;;7.10;3.90;;;;;;;;;;5054657;28;20028;-48
2024/04/03 09:04:10;;;;;;;7.22;3.88;;;;;;;;;;5054790;28;20554;-48
2024/04/03 09:06:39;;;;;;;9.50;3.97;;;;;;;;;;5054787;28;20113;-52
2024/04/03 09:09:06;;;;;;;9.80;4.32;;;;;;;;;;5054690;28;20107;-48
2024/04/03 09:11:32;;;;;;;8.05;3.35;;;;;;;;;;5054614;28;20064;-49
2024/04/03 09:13:59;;;;;;;6.32;3.55;;;;;;;;;;5054878;28;20029;-48
2024/04/03 09:16:25;;;;;;;;;;;;;;;;;;5055033;28;20112;-49
2024/04/03 09:19:03;;;;;;;10.23;3.80;;;;;;;;;;5054487;28;19909;-48
2024/04/03 09:21:29;;;;;;;5.38;3.60;;;;;;;;;;5054229;28;20037;-48
2024/04/03 09:23:55;;;;;;;7.60;3.30;;;;;;;;;;5054475;28;20119;-48
2024/04/03 09:26:21;;;;;;;8.67;3.33;;;;;;;;;;5052983;28;20037;-48
2024/04/03 09:28:57;;;;;;;11.38;3.20;;;;;;;;;;5054370;28;20013;-48
2024/04/03 09:31:23;;;;;;;6.70;3.97;;;;;;;;;;5054090;28;20036;-48
2024/04/03 09:33:53;;;;;;;6.68;3.17;;;;;;;;;;5054159;28;20021;-49
2024/04/03 09:36:20;;;;;;;4.47;2.47;;;;;;;;;;5086463;28;20029;-48
2024/04/03 09:38:46;;;;;;;;;;;;;;;;;;5086881;28;20039;-48
2024/04/03 09:41:13;;;;;;;9.50;3.13;;;;;;;;;;5052746;28;19923;-48
2024/04/03 09:43:40;;;;;;;7.50;3.53;;;;;;;;;;5053986;28;20109;-48
2024/04/03 09:46:08;;;;;;;6.40;3.20;;;;;;;;;;5053171;28;20468;-48
2024/04/03 09:48:34;;;;;;;;;;;;;;;;;;5054381;28;20055;-49
2024/04/03 09:51:00;;;;;;;7.60;2.97;;;;;;;;;;5054345;28;19912;-50
2024/04/03 09:53:29;;;;;;;7.80;3.15;;;;;;;;;;5054287;28;20029;-49
2024/04/03 09:55:55;;;;;;;7.30;2.90;;;;;;;;;;5069158;28;20037;-48
2024/04/03 09:58:26;;;;;;;9.77;2.80;;;;;;;;;;5053831;28;20391;-48
2024/04/03 10:00:57;;;;;;;8.55;3.03;;;;;;;;;;5053525;28;20466;-48
2024/04/03 10:03:32;;;;;;;5.35;2.50;;;;;;;;;;5053707;28;20031;-48
2024/04/03 10:06:03;;;;;;;8.32;2.78;;;;;;;;;;5053650;28;20040;-48
2024/04/03 10:08:34;;;;;;;7.13;2.38;;;;;;;;;;5053737;28;20021;-49
2024/04/03 10:11:04;;;;;;;4.32;2.00;;;;;;;;;;5053450;28;20036;-48
2024/04/03 10:13:32;;;;;;;4.05;2.20;;;;;;;;;;5053601;28;20037;-48
2024/04/03 10:16:02;;;;;;;5.72;2.38;;;;;;;;;;5053454;28;20033;-48
2024/04/03 10:18:28;;;;;;;5.90;3.28;;;;;;;;;;5053115;28;20479;-48
2024/04/03 10:20:58;;;;;;;6.23;2.07;;;;;;;;;;5066812;28;20060;-48
2024/04/03 10:23:24;;;;;;;7.80;2.40;;;;;;;;;;5064531;28;20749;-49
2024/04/03 10:25:51;;;;;;;7.10;1.90;;;;;;;;;;5092041;22;20090;-47
2024/04/03 10:28:17;;;;;;;4.20;2.15;;;;;;;;;;5029451;28;20031;-48
2024/04/03 10:30:45;;;;;;;7.47;3.30;;;;;;;;;;5029527;28;20084;-48
2024/04/03 10:33:11;;;;;;;8.40;4.53;;;;;;;;;;5029078;28;20380;-50
2024/04/03 10:35:38;;;;;;;9.00;4.57;;;;;;;;;;5030616;28;20487;-48
2024/04/03 10:38:04;;;;;;;4.93;2.80;;;;;;;;;;5030595;28;20060;-48
2024/04/03 10:40:31;;;;;;;10.23;2.08;;;;;;;;;;5022246;28;20041;-48
2024/04/03 10:42:57;;;;;;;5.53;2.53;;;;;;;;;;5014565;28;20052;-48
2024/04/03 10:45:23;;;;;;;5.73;2.70;;;;;;;;;;5030140;28;20399;-48
2024/04/03 10:47:50;;;;;;;7.32;2.42;;;;;;;;;;5026683;28;20029;-49
2024/04/03 10:50:16;;;;;;;8.27;2.70;;;;;;;;;;5021900;28;20514;-49
2024/04/03 10:52:44;;;;;;;5.75;2.67;;;;;;;;;;5011857;28;20040;-48
2024/04/03 10:55:12;;;;;;;5.13;2.17;;;;;;;;;;5022172;28;20037;-48
2024/04/03 10:57:42;;;;;;;6.05;3.30;;;;;;;;;;5013838;28;20048;-49
2024/04/03 11:00:15;;;;;;;4.40;2.40;;;;;;;;;;5017283;28;20030;-48
2024/04/03 11:02:47;;;;;;;5.90;3.15;;;;;;;;;;5017653;28;20521;-48
2024/04/03 11:05:17;;;;;;;5.30;2.22;;;;;;;;;;5023633;28;20118;-48
2024/04/03 11:07:43;;;;;;;11.80;3.28;;;;;;;;;;5021325;28;20033;-50
2024/04/03 11:10:12;;;;;;;6.47;2.33;;;;;;;;;;5017918;28;20109;-50
2024/04/03 11:12:38;;;;;;;7.65;2.58;;;;;;;;;;5010089;28;20037;-50
2024/04/03 11:15:05;;;;;;;4.30;2.07;;;;;;;;;;5029617;28;20030;-48
2024/04/03 11:17:31;;;;;;;;;;;;;;;;;;5031231;28;20268;-51
2024/04/03 11:19:57;;;;;;;6.50;2.30;;;;;;;;;;5024498;28;19986;-49
2024/04/03 11:22:23;;;;;;;5.25;2.65;;;;;;;;;;5019503;28;20026;-47
2024/04/03 11:24:50;;;;;;;4.63;2.33;;;;;;;;;;5017583;28;20420;-47
2024/04/03 11:27:16;;;;;;;4.63;2.50;;;;;;;;;;5009969;28;20046;-49
2024/04/03 11:29:42;;;;;;;7.70;2.47;;;;;;;;;;5026792;28;20032;-48
2024/04/03 11:32:09;;;;;;;9.93;3.08;;;;;;;;;;5025688;28;20124;-47
2024/04/03 11:34:35;;;;;;;6.88;2.75;;;;;;;;;;5029804;28;20113;-49
2024/04/03 11:37:03;;;;;;;3.78;2.70;;;;;;;;;;5030650;28;20029;-47
2024/04/03 11:39:30;;;;;;;;;;;;;;;;;;5036712;28;20064;-48
2024/04/03 11:41:57;;;;;;;12.38;4.57;;;;;;;;;;5011682;28;19917;-50
2024/04/03 11:44:24;;;;;;;14.93;4.03;;;;;;;;;;5017647;28;20127;-48
2024/04/03 11:46:50;;;;;;;8.20;4.00;;;;;;;;;;5016031;28;20030;-47
2024/04/03 11:49:16;;;;;;;4.35;2.72;;;;;;;;;;5011793;28;20022;-47
2024/04/03 11:51:43;;;;;;;5.40;2.40;;;;;;;;;;5027260;28;20037;-49
2024/04/03 11:54:09;;;;;;;8.32;2.53;;;;;;;;;;5029203;28;20639;-49
2024/04/03 11:56:35;;;;;;;5.87;2.30;;;;;;;;;;5030175;28;20033;-49
2024/04/03 11:59:01;;;;;;;6.13;2.70;;;;;;;;;;5028584;28;20033;-49
2024/04/03 12:01:27;;;;;;;8.03;3.00;;;;;;;;;;5023011;28;20120;-49
2024/04/03 12:03:54;;;;;;;6.13;2.90;;;;;;;;;;5028660;28;20030;-48
2024/04/03 12:06:20;;;;;;;5.20;2.83;;;;;;;;;;5028519;28;20033;-48
2024/04/03 12:08:49;;;;;;;4.13;2.45;;;;;;;;;;5029732;28;20025;-49
2024/04/03 12:11:16;;;;;;;4.40;2.53;;;;;;;;;;5029689;28;20040;-48
2024/04/03 12:13:42;;;;;;;7.07;2.72;;;;;;;;;;5028791;28;20402;-48
2024/04/03 12:16:10;;;;;;;6.37;2.43;;;;;;;;;;5013448;28;20038;-48
2024/04/03 12:19:12;;;;;;;4.82;2.35;;;;;;;;;;5008472;28;20056;-48
2024/04/03 12:21:35;;;;;;;4.50;2.60;;;;;;;;;;5010216;28;20120;-50
2024/04/03 12:24:01;;;;;;;8.10;2.80;;;;;;;;;;5021919;28;20030;-48
2024/04/03 12:26:27;;;;;;;5.90;2.60;;;;;;;;;;5014300;28;20112;-48
2024/04/03 12:28:53;;;;;;;4.88;1.95;;;;;;;;;;5010947;28;20030;-49
2024/04/03 12:31:20;;;;;;;5.30;2.50;;;;;;;;;;5020519;28;20034;-48
2024/04/03 12:33:47;;;;;;;4.82;2.20;;;;;;;;;;5010710;28;20030;-48
2024/04/03 12:36:14;;;;;;;9.02;2.05;;;;;;;;;;5011282;28;20475;-48
2024/04/03 12:38:40;;;;;;;5.05;3.22;;;;;;;;;;5010243;28;20492;-49
2024/04/03 12:41:06;;;;;;;5.83;2.83;;;;;;;;;;5009861;28;20038;-48
2024/04/03 12:43:33;;;;;;;6.53;2.28;;;;;;;;;;5012538;28;20060;-50
2024/04/03 12:46:00;;;;;;;6.03;2.40;;;;;;;;;;5017078;28;20029;-50
2024/04/03 12:48:26;;;;;;;6.32;2.80;;;;;;;;;;5028331;28;20037;-48
2024/04/03 12:50:53;;;;;;;7.78;3.97;;;;;;;;;;5029617;28;20033;-49
2024/04/03 12:53:19;;;;;;;12.43;3.38;;;;;;;;;;5044652;28;20029;-48
2024/04/03 12:55:46;;;;;;;9.77;2.95;;;;;;;;;;5018619;28;20030;-48
2024/04/03 12:58:12;;;;;;;10.63;2.10;;;;;;;;;;5028427;28;20022;-48
2024/04/03 13:00:39;;;;;;;10.10;3.20;;;;;;;;;;5013961;28;20516;-49
2024/04/03 13:03:05;;;;;;;14.10;8.60;;;;;;;;;;5015693;28;20101;-48
2024/04/03 13:05:31;;;;;;;11.35;7.25;;;;;;;;;;5020939;28;20041;-51
2024/04/03 13:07:57;;;;;;;10.05;5.53;;;;;;;;;;5018154;28;20714;-51
2024/04/03 13:10:24;;;;;;;6.70;2.40;;;;;;;;;;5014647;28;20060;-48
2024/04/03 13:12:50;;;;;;;5.25;3.28;;;;;;;;;;5022252;28;20026;-50
2024/04/03 13:15:17;;;;;;;3.87;2.47;;;;;;;;;;4995083;28;20034;-49
2024/04/03 13:17:43;;;;;;;5.25;2.40;;;;;;;;;;5018228;28;20060;-52
2024/04/03 13:20:09;;;;;;;4.47;2.27;;;;;;;;;;5019459;28;20030;-49
2024/04/03 13:22:36;;;;;;;379.55;83.25;;;;;;;;;;5016001;28;20285;-50
2024/04/03 13:25:03;;;;;;;163.57;39.53;;;;;;;;;;5031030;28;20167;-49
2024/04/03 13:27:29;;;;;;;;;;;;;;;;;;5016457;28;20026;-50
2024/04/03 13:29:56;;;;;;;358.30;91.03;;;;;;;;;;5025521;28;19913;-49
2024/04/03 13:32:23;;;;;;;12.68;4.75;;;;;;;;;;5020308;28;20533;-48
2024/04/03 13:34:49;;;;;;;;;;;;;;;;;;5026270;28;20563;-48
2024/04/03 13:37:15;;;;;;;17.70;4.47;;;;;;;;;;5027825;28;20004;-48
2024/04/03 13:39:41;;;;;;;12.03;3.57;;;;;;;;;;5027643;28;20391;-48
2024/04/03 13:42:07;;;;;;;52.83;11.77;;;;;;;;;;5025746;28;20029;-48
2024/04/03 13:44:34;;;;;;;9.85;4.72;;;;;;;;;;5031416;28;20318;-48
2024/04/03 13:47:00;;;;;;;63.25;17.90;;;;;;;;;;5031535;28;20029;-48
2024/04/03 13:49:26;;;;;;;14.05;5.30;;;;;;;;;;5037428;28;20022;-50
2024/04/03 13:51:53;;;;;;;37.53;10.23;;;;;;;;;;5031759;28;20033;-49
2024/04/03 13:54:19;;;;;;;19.60;8.30;;;;;;;;;;5042468;28;20290;-50
2024/04/03 13:56:47;;;;;;;17.90;6.70;;;;;;;;;;5031196;28;20025;-50
2024/04/03 13:59:14;;;;;;;120.32;25.38;;;;;;;;;;5014439;28;20399;-48
2024/04/03 14:01:40;;;;;;;730.40;205.88;;;;;;;;;;5030009;28;20037;-50
2024/04/03 14:04:06;;;;;;;186.67;45.13;;;;;;;;;;5025288;28;20068;-48
2024/04/03 14:06:33;;;;;;;17.45;4.15;;;;;;;;;;5013997;28;20014;-48
2024/04/03 14:08:59;;;;;;;132.67;19.70;;;;;;;;;;5013861;28;20473;-47
2024/04/03 14:11:26;;;;;;;16.58;4.40;;;;;;;;;;5019918;28;20745;-51
2024/04/03 14:13:54;;;;;;;6.07;2.65;;;;;;;;;;5033541;28;20037;-49
2024/04/03 14:16:20;;;;;;;75.15;14.65;;;;;;;;;;5033624;28;20104;-48
2024/04/03 14:18:47;;;;;;;5.90;3.17;;;;;;;;;;5033488;28;20502;-49
2024/04/03 14:21:14;;;;;;;14.95;3.88;;;;;;;;;;5033308;28;20026;-48
2024/04/03 14:23:40;;;;;;;16.13;5.78;;;;;;;;;;5033507;28;20064;-48
2024/04/03 14:26:07;;;;;;;19.37;5.70;;;;;;;;;;5033351;28;20578;-50
2024/04/03 14:28:33;;;;;;;13.90;5.30;;;;;;;;;;5032249;28;20034;-50
2024/04/03 14:30:59;;;;;;;5.25;2.65;;;;;;;;;;5032866;28;20033;-48
2024/04/03 14:33:26;;;;;;;4.33;2.37;;;;;;;;;;5033350;28;20485;-48
2024/04/03 14:35:52;;;;;;;4.60;2.23;;;;;;;;;;5031914;28;20032;-50
2024/04/03 14:38:21;;;;;;;8.27;2.70;;;;;;;;;;5033259;28;20641;-49
2024/04/03 14:40:47;;;;;;;7.70;2.60;;;;;;;;;;5032966;28;20467;-48
2024/04/03 14:43:14;;;;;;;8.00;3.00;;;;;;;;;;5031762;28;20029;-49